createdAt,value
2023-05-03T00:02:12.822Z,2.53
2023-05-03T00:04:46.310Z,2.40
2023-05-03T00:07:13.289Z,2.60
2023-05-03T00:09:40.205Z,2.90
2023-05-03T00:12:07.283Z,2.58
2023-05-03T00:14:34.132Z,2.85
2023-05-03T00:17:01.016Z,2.50
2023-05-03T00:19:33.757Z,2.70
2023-05-03T00:22:00.738Z,2.80
2023-05-03T00:24:27.731Z,2.95
2023-05-03T00:26:54.608Z,2.70
2023-05-03T00:29:22.874Z,2.40
2023-05-03T00:31:49.803Z,2.90
2023-05-03T00:34:17.014Z,2.83
2023-05-03T00:36:43.803Z,3.33
2023-05-03T00:39:11.432Z,2.60
2023-05-03T00:41:39.129Z,3.10
2023-05-03T00:44:06.442Z,2.60
2023-05-03T00:46:33.903Z,2.92
2023-05-03T00:49:01.507Z,2.75
2023-05-03T00:51:28.442Z,2.50
2023-05-03T00:53:56.349Z,2.78
2023-05-03T00:56:24.339Z,2.63
2023-05-03T00:58:52.598Z,2.83
2023-05-03T01:01:19.722Z,2.47
2023-05-03T01:03:48.225Z,2.72
2023-05-03T01:06:41.403Z,3.20
2023-05-03T01:09:27.370Z,2.72
2023-05-03T01:12:43.143Z,2.85
2023-05-03T01:15:38.317Z,2.65
2023-05-03T01:18:16.307Z,2.40
2023-05-03T01:20:48.315Z,2.60
2023-05-03T01:23:32.847Z,2.60
2023-05-03T01:26:15.024Z,2.50
2023-05-03T01:28:42.133Z,2.00
2023-05-03T01:31:10.448Z,2.50
2023-05-03T01:33:47.406Z,2.83
2023-05-03T01:36:26.435Z,2.38
2023-05-03T01:38:54.365Z,2.67
2023-05-03T01:41:23.401Z,2.97
2023-05-03T01:43:53.869Z,2.58
2023-05-03T01:46:20.870Z,2.95
2023-05-03T01:48:48.162Z,2.70
2023-05-03T01:51:15.147Z,2.90
2023-05-03T01:53:42.022Z,2.75
2023-05-03T01:56:08.863Z,2.72
2023-05-03T01:58:36.223Z,3.20
2023-05-03T02:01:06.798Z,3.30
2023-05-03T02:03:34.206Z,2.53
2023-05-03T02:06:01.235Z,2.38
2023-05-03T02:08:29.099Z,2.58
2023-05-03T02:10:56.071Z,2.20
2023-05-03T02:13:22.965Z,2.30
2023-05-03T02:15:50.149Z,2.60
2023-05-03T02:18:19.397Z,3.15
2023-05-03T02:20:46.979Z,3.05
2023-05-03T02:23:14.370Z,3.17
2023-05-03T02:25:41.860Z,2.80
2023-05-03T02:28:08.699Z,2.58
2023-05-03T02:30:36.493Z,2.95
2023-05-03T02:33:03.721Z,2.80
2023-05-03T02:35:31.174Z,3.05
2023-05-03T02:37:58.183Z,2.95
2023-05-03T02:40:25.820Z,3.15
2023-05-03T02:42:53.922Z,3.00
2023-05-03T02:45:25.530Z,2.60
2023-05-03T02:47:52.475Z,2.70
2023-05-03T02:50:19.961Z,2.72
2023-05-03T02:52:46.958Z,3.13
2023-05-03T02:55:13.974Z,2.92
2023-05-03T02:57:43.205Z,3.15
2023-05-03T03:00:15.144Z,2.97
2023-05-03T03:02:42.974Z,3.55
2023-05-03T03:05:10.659Z,3.08
2023-05-03T03:07:39.748Z,3.20
2023-05-03T03:10:08.298Z,2.90
2023-05-03T03:12:39.389Z,2.90
2023-05-03T03:17:40.549Z,2.97
2023-05-03T03:20:13.410Z,3.20
2023-05-03T03:22:45.408Z,2.88
2023-05-03T03:25:12.249Z,2.95
2023-05-03T03:27:39.935Z,3.28
2023-05-03T03:30:09.280Z,3.05
2023-05-03T03:32:42.705Z,2.90
2023-05-03T03:35:15.280Z,2.97
2023-05-03T03:37:42.170Z,2.90
2023-05-03T03:40:10.633Z,2.83
2023-05-03T03:42:40.311Z,3.00
2023-05-03T03:45:08.000Z,2.97
2023-05-03T03:47:34.978Z,3.20
2023-05-03T03:50:02.398Z,3.17
2023-05-03T03:52:32.025Z,3.42
2023-05-03T03:54:58.963Z,3.42
2023-05-03T03:57:30.065Z,3.42
2023-05-03T03:59:59.146Z,3.40
2023-05-03T04:02:28.055Z,4.68
2023-05-03T04:04:55.556Z,4.85
2023-05-03T04:07:22.501Z,3.20
2023-05-03T04:09:49.729Z,3.10
2023-05-03T04:12:16.851Z,3.40
2023-05-03T04:14:45.812Z,3.10
2023-05-03T04:17:12.965Z,3.13
2023-05-03T04:19:39.825Z,3.20
2023-05-03T04:22:07.163Z,3.33
2023-05-03T04:24:39.852Z,3.00
2023-05-03T04:27:08.867Z,3.42
2023-05-03T04:29:38.965Z,3.35
2023-05-03T04:32:07.739Z,2.95
2023-05-03T04:34:36.002Z,3.90
2023-05-03T04:37:05.083Z,3.17
2023-05-03T04:39:32.747Z,3.38
2023-05-03T04:42:02.846Z,3.08
2023-05-03T04:44:29.898Z,3.85
2023-05-03T04:46:57.693Z,3.78
2023-05-03T04:49:27.625Z,3.85
2023-05-03T04:51:56.438Z,3.75
2023-05-03T04:54:23.970Z,3.88
2023-05-03T04:56:51.558Z,4.00
2023-05-03T04:59:19.129Z,3.50
2023-05-03T05:01:47.172Z,4.15
2023-05-03T05:04:14.670Z,4.00
2023-05-03T05:06:51.654Z,4.07
2023-05-03T05:09:26.911Z,4.07
2023-05-03T05:11:57.228Z,4.65
2023-05-03T05:14:31.443Z,4.57
2023-05-03T05:16:59.337Z,4.30
2023-05-03T05:19:27.211Z,4.43
2023-05-03T05:21:54.151Z,4.20
2023-05-03T05:24:22.821Z,3.97
2023-05-03T05:26:50.863Z,4.15
2023-05-03T05:29:18.234Z,4.22
2023-05-03T05:31:45.415Z,4.32
2023-05-03T05:34:12.786Z,4.05
2023-05-03T05:36:39.861Z,5.00
2023-05-03T05:39:07.930Z,4.40
2023-05-03T05:41:34.918Z,4.43
2023-05-03T05:44:01.926Z,4.72
2023-05-03T05:46:30.771Z,4.70
2023-05-03T05:48:58.175Z,4.70
2023-05-03T05:51:25.299Z,4.38
2023-05-03T05:53:52.303Z,4.60
2023-05-03T05:56:20.508Z,4.57
2023-05-03T05:58:47.421Z,4.75
2023-05-03T06:01:14.757Z,4.82
2023-05-03T06:03:42.162Z,4.28
2023-05-03T06:06:09.490Z,4.03
2023-05-03T06:08:36.777Z,4.20
2023-05-03T06:11:05.193Z,4.00
2023-05-03T06:13:34.579Z,4.13
2023-05-03T06:16:02.555Z,4.88
2023-05-03T06:18:29.601Z,4.70
2023-05-03T06:20:56.632Z,4.32
2023-05-03T06:23:24.059Z,4.47
2023-05-03T06:25:52.925Z,4.57
2023-05-03T06:28:20.908Z,4.10
2023-05-03T06:30:51.790Z,4.28
2023-05-03T06:33:18.846Z,3.85
2023-05-03T06:35:48.405Z,3.90
2023-05-03T06:38:18.377Z,3.25
2023-05-03T06:40:46.782Z,3.15
2023-05-03T06:43:13.919Z,3.95
2023-05-03T06:45:53.888Z,3.75
2023-05-03T06:48:25.417Z,3.60
2023-05-03T06:50:54.533Z,3.35
2023-05-03T06:53:21.441Z,3.25
2023-05-03T06:55:48.377Z,2.58
2023-05-03T06:58:16.743Z,3.47
2023-05-03T07:00:43.680Z,2.80
2023-05-03T07:03:10.828Z,3.35
2023-05-03T07:05:37.796Z,2.90
2023-05-03T07:08:04.942Z,2.83
2023-05-03T07:10:31.947Z,3.03
2023-05-03T07:12:58.873Z,3.40
2023-05-03T07:15:25.868Z,3.22
2023-05-03T07:17:52.909Z,3.33
2023-05-03T07:20:20.010Z,3.05
2023-05-03T07:22:47.373Z,3.15
2023-05-03T07:25:17.530Z,2.55
2023-05-03T07:27:44.658Z,2.85
2023-05-03T07:30:12.122Z,2.90
2023-05-03T07:32:40.411Z,2.90
2023-05-03T07:35:09.857Z,2.95
2023-05-03T07:37:41.003Z,3.05
2023-05-03T07:40:13.986Z,3.13
2023-05-03T07:42:46.878Z,3.10
2023-05-03T07:45:22.516Z,2.80
2023-05-03T07:47:50.049Z,2.95
2023-05-03T07:50:17.113Z,3.15
2023-05-03T07:52:44.089Z,3.17
2023-05-03T07:55:10.966Z,3.00
2023-05-03T07:57:37.953Z,2.90
2023-05-03T08:00:06.245Z,2.35
2023-05-03T08:02:40.114Z,3.67
2023-05-03T08:05:08.384Z,2.25
2023-05-03T08:07:35.290Z,2.70
2023-05-03T08:10:02.796Z,2.83
2023-05-03T08:12:29.962Z,2.88
2023-05-03T08:14:56.924Z,2.30
2023-05-03T08:17:23.990Z,2.50
2023-05-03T08:19:50.984Z,2.67
2023-05-03T08:22:18.107Z,2.78
2023-05-03T08:24:44.978Z,2.72
2023-05-03T08:27:12.496Z,2.55
2023-05-03T08:29:39.493Z,2.63
2023-05-03T08:32:06.420Z,2.95
2023-05-03T08:34:33.351Z,2.83
2023-05-03T08:37:00.336Z,2.80
2023-05-03T08:39:27.865Z,2.80
2023-05-03T08:41:55.383Z,3.03
2023-05-03T08:44:24.765Z,2.80
2023-05-03T08:46:51.775Z,2.95
2023-05-03T08:49:19.285Z,2.75
2023-05-03T08:51:48.280Z,2.95
2023-05-03T08:54:17.679Z,2.75
2023-05-03T08:56:45.383Z,2.90
2023-05-03T08:59:12.884Z,2.88
2023-05-03T09:01:41.708Z,3.00
2023-05-03T09:04:10.757Z,3.10
2023-05-03T09:06:38.535Z,2.80
2023-05-03T09:09:08.022Z,2.70
2023-05-03T09:11:37.199Z,2.97
2023-05-03T09:14:13.030Z,2.35
2023-05-03T09:16:42.519Z,2.45
2023-05-03T09:19:11.689Z,2.60
2023-05-03T09:21:40.908Z,2.22
2023-05-03T09:24:20.930Z,2.63
2023-05-03T09:26:51.961Z,2.42
2023-05-03T09:29:31.588Z,2.50
2023-05-03T09:32:01.455Z,2.40
2023-05-03T09:34:28.773Z,2.70
2023-05-03T09:36:56.209Z,2.63
2023-05-03T09:39:23.111Z,2.63
2023-05-03T09:41:50.574Z,2.95
2023-05-03T09:44:17.843Z,2.53
2023-05-03T09:47:06.250Z,2.42
2023-05-03T09:49:34.886Z,2.22
2023-05-03T09:52:02.858Z,2.58
2023-05-03T09:54:35.364Z,2.28
2023-05-03T09:57:07.973Z,2.47
2023-05-03T09:59:37.569Z,2.40
2023-05-03T10:02:08.139Z,2.20
2023-05-03T10:04:50.839Z,2.05
2023-05-03T10:07:23.127Z,2.47
2023-05-03T10:09:50.546Z,2.03
2023-05-03T10:12:19.192Z,2.35
2023-05-03T10:14:48.547Z,2.00
2023-05-03T10:17:43.406Z,2.40
2023-05-03T10:20:31.911Z,2.10
2023-05-03T10:23:04.927Z,2.60
2023-05-03T10:25:34.646Z,2.30
2023-05-03T10:28:07.532Z,2.45
2023-05-03T10:30:36.316Z,2.38
2023-05-03T10:33:12.356Z,2.38
2023-05-03T10:35:42.266Z,2.42
2023-05-03T10:38:17.829Z,2.30
2023-05-03T10:40:44.976Z,2.90
2023-05-03T10:43:34.435Z,2.20
2023-05-03T10:46:11.710Z,2.47
2023-05-03T10:48:38.702Z,2.00
2023-05-03T10:51:28.707Z,2.13
2023-05-03T10:53:55.777Z,2.42
2023-05-03T10:56:23.908Z,2.03
2023-05-03T10:58:55.988Z,2.60
2023-05-03T11:01:24.795Z,2.40
2023-05-03T11:04:07.914Z,2.50
2023-05-03T11:06:38.280Z,2.20
2023-05-03T11:09:12.048Z,2.08
2023-05-03T11:11:41.842Z,2.28
2023-05-03T11:14:10.064Z,2.05
2023-05-03T11:16:40.526Z,2.17
2023-05-03T11:19:07.539Z,2.42
2023-05-03T11:21:34.992Z,2.50
2023-05-03T11:24:02.382Z,2.42
2023-05-03T11:26:29.288Z,2.53
2023-05-03T11:28:57.071Z,2.40
2023-05-03T11:31:24.058Z,2.20
2023-05-03T11:33:51.277Z,2.28
2023-05-03T11:36:18.336Z,2.40
2023-05-03T11:38:46.083Z,2.50
2023-05-03T11:41:17.753Z,2.42
2023-05-03T11:43:49.443Z,2.55
2023-05-03T11:46:27.807Z,2.83
2023-05-03T11:48:56.037Z,2.70
2023-05-03T11:51:25.437Z,2.80
2023-05-03T11:53:52.545Z,2.13
2023-05-03T11:56:20.927Z,2.72
2023-05-03T11:58:58.474Z,2.33
2023-05-03T12:01:28.004Z,2.30
2023-05-03T12:04:05.656Z,2.10
2023-05-03T12:06:36.132Z,2.53
2023-05-03T12:09:14.186Z,2.30
2023-05-03T12:11:44.100Z,3.20
2023-05-03T12:14:12.075Z,2.42
2023-05-03T12:16:51.638Z,2.90
2023-05-03T12:19:33.682Z,2.95
2023-05-03T12:22:17.764Z,2.50
2023-05-03T12:24:49.736Z,2.55
2023-05-03T12:27:19.120Z,3.00
2023-05-03T12:30:01.986Z,2.60
2023-05-03T12:32:29.366Z,2.45
2023-05-03T12:34:57.244Z,2.58
2023-05-03T12:37:27.113Z,2.88
2023-05-03T12:40:16.542Z,3.15
2023-05-03T12:42:43.357Z,2.70
2023-05-03T12:45:13.838Z,2.95
2023-05-03T12:47:44.477Z,2.63
2023-05-03T12:50:12.702Z,2.60
2023-05-03T12:52:40.189Z,2.65
2023-05-03T12:55:11.469Z,2.70
2023-05-03T12:57:39.400Z,3.00
2023-05-03T13:00:14.493Z,2.30
2023-05-03T13:03:21.381Z,2.80
2023-05-03T13:05:35.336Z,3.05
2023-05-03T13:10:33.996Z,2.45
2023-05-03T13:13:01.634Z,2.72
2023-05-03T13:15:28.719Z,2.47
2023-05-03T13:17:56.246Z,2.50
2023-05-03T13:20:24.259Z,2.35
2023-05-03T13:22:51.147Z,2.70
2023-05-03T13:25:17.993Z,2.60
2023-05-03T13:27:46.746Z,2.22
2023-05-03T13:30:14.810Z,2.60
2023-05-03T13:32:42.123Z,2.30
2023-05-03T13:35:09.861Z,2.33
2023-05-03T13:37:36.951Z,2.20
2023-05-03T13:40:04.911Z,2.15
2023-05-03T13:42:34.856Z,2.20
2023-05-03T13:45:02.338Z,2.60
2023-05-03T13:47:41.897Z,2.35
2023-05-03T13:50:16.650Z,2.72
2023-05-03T13:52:44.703Z,3.03
2023-05-03T13:55:11.621Z,2.50
2023-05-03T13:57:38.480Z,2.30
2023-05-03T14:00:07.201Z,2.42
2023-05-03T14:02:34.536Z,2.38
2023-05-03T14:05:01.596Z,2.55
2023-05-03T14:07:28.838Z,2.60
2023-05-03T14:09:57.404Z,2.63
2023-05-03T14:12:28.422Z,2.10
2023-05-03T14:14:55.382Z,2.50
2023-05-03T14:17:22.419Z,2.58
2023-05-03T14:19:49.682Z,2.58
2023-05-03T14:22:16.670Z,2.60
2023-05-03T14:24:46.525Z,2.70
2023-05-03T14:27:14.225Z,2.75
2023-05-03T14:29:42.818Z,3.08
2023-05-03T14:32:11.362Z,2.75
2023-05-03T14:34:38.891Z,3.10
2023-05-03T14:37:07.521Z,2.95
2023-05-03T14:39:39.578Z,2.97
2023-05-03T14:42:16.529Z,2.90
2023-05-03T14:44:47.688Z,3.10
2023-05-03T14:47:14.951Z,2.67
2023-05-03T14:49:44.473Z,3.03
2023-05-03T14:52:55.939Z,2.92
2023-05-03T14:55:23.541Z,4.75
2023-05-03T14:57:50.947Z,3.50
2023-05-03T15:00:18.417Z,3.50
2023-05-03T15:02:46.705Z,3.47
2023-05-03T15:05:14.002Z,2.90
2023-05-03T15:07:41.535Z,3.20
2023-05-03T15:10:10.023Z,3.55
2023-05-03T15:12:39.199Z,3.22
2023-05-03T15:15:10.230Z,3.10
2023-05-03T15:17:37.302Z,2.97
2023-05-03T15:20:05.529Z,3.13
2023-05-03T15:22:33.909Z,3.17
2023-05-03T15:25:02.396Z,3.30
2023-05-03T15:27:29.327Z,3.33
2023-05-03T15:29:56.398Z,3.40
2023-05-03T15:32:25.455Z,3.58
2023-05-03T15:34:52.798Z,3.70
2023-05-03T15:37:19.740Z,3.63
2023-05-03T15:39:46.851Z,3.70
2023-05-03T15:42:13.930Z,3.60
2023-05-03T15:44:40.928Z,3.65
2023-05-03T15:47:07.988Z,3.60
2023-05-03T15:49:35.092Z,3.65
2023-05-03T15:52:02.993Z,3.28
2023-05-03T15:54:30.031Z,3.30
2023-05-03T15:56:59.675Z,3.90
2023-05-03T16:01:54.935Z,3.30
2023-05-03T16:04:22.404Z,3.38
2023-05-03T16:06:51.610Z,3.47
2023-05-03T16:09:19.595Z,3.20
2023-05-03T16:11:46.728Z,3.15
2023-05-03T16:14:14.391Z,2.92
2023-05-03T16:16:41.489Z,3.30
2023-05-03T16:19:10.078Z,3.13
2023-05-03T16:21:37.692Z,2.90
2023-05-03T16:24:06.595Z,3.33
2023-05-03T16:26:36.155Z,3.33
2023-05-03T16:29:03.922Z,3.42
2023-05-03T16:31:31.551Z,3.30
2023-05-03T16:33:58.559Z,3.70
2023-05-03T16:36:25.422Z,3.53
2023-05-03T16:38:52.309Z,3.40
2023-05-03T16:41:19.696Z,2.95
2023-05-03T16:43:47.010Z,3.15
2023-05-03T16:46:13.836Z,3.25
2023-05-03T16:48:40.740Z,4.50
2023-05-03T16:51:07.613Z,3.75
2023-05-03T16:53:34.479Z,3.22
2023-05-03T16:56:01.611Z,3.80
2023-05-03T16:58:28.467Z,3.63
2023-05-03T17:00:56.129Z,4.03
2023-05-03T17:03:23.477Z,3.75
2023-05-03T17:05:50.516Z,3.90
2023-05-03T17:08:17.876Z,4.20
2023-05-03T17:10:45.352Z,3.80
2023-05-03T17:13:12.622Z,3.88
2023-05-03T17:15:39.544Z,4.60
2023-05-03T17:18:06.765Z,3.90
2023-05-03T17:20:34.984Z,3.55
2023-05-03T17:23:02.226Z,4.03
2023-05-03T17:25:29.114Z,4.25
2023-05-03T17:27:56.741Z,4.07
2023-05-03T17:30:23.844Z,4.00
2023-05-03T17:32:51.278Z,3.80
2023-05-03T17:35:18.497Z,3.65
2023-05-03T17:37:46.020Z,3.80
2023-05-03T17:40:13.492Z,3.53
2023-05-03T17:42:40.354Z,3.50
2023-05-03T17:45:08.324Z,3.13
2023-05-03T17:47:35.362Z,3.95
2023-05-03T17:50:02.516Z,4.03
2023-05-03T17:52:29.460Z,4.25
2023-05-03T17:54:57.123Z,3.75
2023-05-03T17:57:24.101Z,3.83
2023-05-03T17:59:51.725Z,4.07
2023-05-03T18:02:18.677Z,3.58
2023-05-03T18:04:45.628Z,3.70
2023-05-03T18:07:12.580Z,3.85
2023-05-03T18:09:39.542Z,3.53
2023-05-03T18:12:07.080Z,4.40
2023-05-03T18:14:37.213Z,3.67
2023-05-03T18:17:04.240Z,4.15
2023-05-03T18:19:31.905Z,3.60
2023-05-03T18:21:58.787Z,3.53
2023-05-03T18:24:25.939Z,4.47
2023-05-03T18:26:52.871Z,3.75
2023-05-03T18:29:20.058Z,3.63
2023-05-03T18:31:46.961Z,4.07
2023-05-03T18:34:13.900Z,3.33
2023-05-03T18:36:40.865Z,3.80
2023-05-03T18:39:08.668Z,4.10
2023-05-03T18:41:35.646Z,3.75
2023-05-03T18:44:04.100Z,3.80
2023-05-03T18:46:31.238Z,3.72
2023-05-03T18:48:58.260Z,3.92
2023-05-03T18:51:25.110Z,3.47
2023-05-03T18:53:51.970Z,4.43
2023-05-03T18:56:18.901Z,3.67
2023-05-03T18:58:47.795Z,3.67
2023-05-03T19:01:14.709Z,4.40
2023-05-03T19:03:41.853Z,4.00
2023-05-03T19:06:08.970Z,3.78
2023-05-03T19:08:35.868Z,4.05
2023-05-03T19:11:10.491Z,4.07
2023-05-03T19:13:37.663Z,3.88
2023-05-03T19:16:04.921Z,3.53
2023-05-03T19:18:31.968Z,3.85
2023-05-03T19:20:58.970Z,4.00
2023-05-03T19:23:26.072Z,4.00
2023-05-03T19:25:53.332Z,3.90
2023-05-03T19:28:30.582Z,4.07
2023-05-03T19:30:57.994Z,3.45
2023-05-03T19:33:25.757Z,3.40
2023-05-03T19:35:53.438Z,3.63
2023-05-03T19:38:20.896Z,3.85
2023-05-03T19:40:58.622Z,4.00
2023-05-03T19:43:26.269Z,3.63
2023-05-03T19:45:53.276Z,3.65
2023-05-03T19:48:20.198Z,3.75
2023-05-03T19:50:47.575Z,3.50
2023-05-03T19:53:14.615Z,4.20
2023-05-03T19:55:41.768Z,3.97
2023-05-03T19:58:08.885Z,4.05
2023-05-03T20:00:36.020Z,4.10
2023-05-03T20:03:03.396Z,3.70
2023-05-03T20:05:30.880Z,4.00
2023-05-03T20:07:58.063Z,4.10
2023-05-03T20:10:24.991Z,4.05
2023-05-03T20:12:52.205Z,3.88
2023-05-03T20:15:19.154Z,4.05
2023-05-03T20:17:46.203Z,3.83
2023-05-03T20:20:14.613Z,4.10
2023-05-03T20:22:41.460Z,3.53
2023-05-03T20:25:35.137Z,4.10
2023-05-03T20:28:02.193Z,4.30
2023-05-03T20:30:31.612Z,4.20
2023-05-03T20:32:58.956Z,3.83
2023-05-03T20:35:28.581Z,3.97
2023-05-03T20:37:55.519Z,4.30
2023-05-03T20:40:22.605Z,3.60
2023-05-03T20:42:52.090Z,3.72
2023-05-03T20:45:19.063Z,4.15
2023-05-03T20:47:45.945Z,4.07
2023-05-03T20:50:12.834Z,3.75
2023-05-03T20:52:39.712Z,3.85
2023-05-03T20:55:07.196Z,3.72
2023-05-03T20:57:34.067Z,3.30
2023-05-03T21:00:02.478Z,4.03
2023-05-03T21:02:29.614Z,3.80
2023-05-03T21:04:56.512Z,3.63
2023-05-03T21:07:23.477Z,4.10
2023-05-03T21:09:50.303Z,4.40
2023-05-03T21:12:17.193Z,3.55
2023-05-03T21:14:44.071Z,4.13
2023-05-03T21:17:12.221Z,3.55
2023-05-03T21:19:39.897Z,3.63
2023-05-03T21:22:11.550Z,3.40
2023-05-03T21:24:38.396Z,4.38
2023-05-03T21:27:05.541Z,3.85
2023-05-03T21:29:32.564Z,3.80
2023-05-03T21:31:59.539Z,3.80
2023-05-03T21:34:26.895Z,3.58
2023-05-03T21:36:54.070Z,3.53
2023-05-03T21:39:21.433Z,3.80
2023-05-03T21:41:48.672Z,4.00
2023-05-03T21:44:15.709Z,3.20
2023-05-03T21:46:42.922Z,4.10
2023-05-03T21:49:10.087Z,3.65
2023-05-03T21:51:37.209Z,3.58
2023-05-03T21:54:04.668Z,3.60
2023-05-03T21:56:31.641Z,3.60
2023-05-03T21:58:58.514Z,3.60
2023-05-03T22:01:25.502Z,3.30
2023-05-03T22:03:53.045Z,3.80
2023-05-03T22:06:20.286Z,3.45
2023-05-03T22:08:47.653Z,3.38
2023-05-03T22:11:14.721Z,3.50
2023-05-03T22:13:54.623Z,3.33
2023-05-03T22:16:26.426Z,3.50
2023-05-03T22:18:53.442Z,3.10
2023-05-03T22:21:20.299Z,3.50
2023-05-03T22:23:47.191Z,3.00
2023-05-03T22:26:14.088Z,3.42
2023-05-03T22:28:41.333Z,3.58
2023-05-03T22:31:08.237Z,3.80
2023-05-03T22:33:35.151Z,3.70
2023-05-03T22:36:02.401Z,3.50
2023-05-03T22:38:29.376Z,3.60
2023-05-03T22:40:56.378Z,3.38
2023-05-03T22:43:23.360Z,3.75
2023-05-03T22:45:50.329Z,3.90
2023-05-03T22:48:17.541Z,3.50
2023-05-03T22:50:44.449Z,3.38
2023-05-03T22:53:11.390Z,3.65
2023-05-03T22:55:38.245Z,3.15
2023-05-03T22:58:05.382Z,3.63
2023-05-03T23:00:32.314Z,3.28
2023-05-03T23:02:59.274Z,3.80
2023-05-03T23:05:26.685Z,3.25
2023-05-03T23:07:53.889Z,3.95
2023-05-03T23:10:20.775Z,3.47
2023-05-03T23:12:47.730Z,3.70
2023-05-03T23:15:14.823Z,4.03
2023-05-03T23:17:41.762Z,3.95
2023-05-03T23:20:09.918Z,4.05
2023-05-03T23:22:40.764Z,3.47
2023-05-03T23:25:09.588Z,3.90
2023-05-03T23:27:36.827Z,3.75
2023-05-03T23:30:04.950Z,3.63
2023-05-03T23:32:32.490Z,3.47
2023-05-03T23:35:00.226Z,3.92
2023-05-03T23:37:28.330Z,3.63
2023-05-03T23:39:55.232Z,3.53
2023-05-03T23:42:22.096Z,4.47
2023-05-03T23:44:55.133Z,3.65
2023-05-03T23:47:23.765Z,3.70
2023-05-03T23:49:50.977Z,3.47
2023-05-03T23:52:19.776Z,4.05
2023-05-03T23:54:46.675Z,4.22
2023-05-03T23:57:16.567Z,3.80
2023-05-03T23:59:43.403Z,3.45
